sensor_id;sensor_type;location;lat;lon;timestamp;temperature;humidity
11489;DHT22;5801;50.804;12.638;2024-03-25T00:15:52;4.60;1.00
11489;DHT22;5801;50.804;12.638;2024-03-25T00:28:03;3.80;1.00
11489;DHT22;5801;50.804;12.638;2024-03-25T00:32:55;4.20;1.00
11489;DHT22;5801;50.804;12.638;2024-03-25T00:57:16;4.10;99.90
11489;DHT22;5801;50.804;12.638;2024-03-25T01:04:35;4.70;99.90
11489;DHT22;5801;50.804;12.638;2024-03-25T01:14:21;4.20;99.90
11489;DHT22;5801;50.804;12.638;2024-03-25T01:19:13;4.30;99.90
11489;DHT22;5801;50.804;12.638;2024-03-25T01:21:38;4.40;99.90
11489;DHT22;5801;50.804;12.638;2024-03-25T01:26:30;4.40;99.90
11489;DHT22;5801;50.804;12.638;2024-03-25T01:38:43;4.40;99.90
11489;DHT22;5801;50.804;12.638;2024-03-25T01:41:10;4.30;99.90
11489;DHT22;5801;50.804;12.638;2024-03-25T01:43:36;4.30;99.90
11489;DHT22;5801;50.804;12.638;2024-03-25T01:50:55;4.40;99.90
11489;DHT22;5801;50.804;12.638;2024-03-25T01:53:22;4.20;99.90
11489;DHT22;5801;50.804;12.638;2024-03-25T01:58:14;4.20;99.90
11489;DHT22;5801;50.804;12.638;2024-03-25T02:00:41;4.50;99.90
11489;DHT22;5801;50.804;12.638;2024-03-25T02:03:08;4.20;99.90
11489;DHT22;5801;50.804;12.638;2024-03-25T02:05:34;4.40;99.90
11489;DHT22;5801;50.804;12.638;2024-03-25T02:08:01;4.50;99.90
11489;DHT22;5801;50.804;12.638;2024-03-25T02:10:29;4.40;99.90
11489;DHT22;5801;50.804;12.638;2024-03-25T02:20:14;4.40;99.90
11489;DHT22;5801;50.804;12.638;2024-03-25T02:22:41;4.50;99.90
11489;DHT22;5801;50.804;12.638;2024-03-25T02:25:09;4.40;99.90
11489;DHT22;5801;50.804;12.638;2024-03-25T02:27:38;4.40;99.90
11489;DHT22;5801;50.804;12.638;2024-03-25T02:30:06;4.50;99.90
11489;DHT22;5801;50.804;12.638;2024-03-25T02:34:59;4.30;99.90
11489;DHT22;5801;50.804;12.638;2024-03-25T02:37:25;4.50;99.90
11489;DHT22;5801;50.804;12.638;2024-03-25T02:39:54;4.40;99.90
11489;DHT22;5801;50.804;12.638;2024-03-25T02:52:06;4.10;99.90
11489;DHT22;5801;50.804;12.638;2024-03-25T03:23:44;3.40;99.90
11489;DHT22;5801;50.804;12.638;2024-03-25T03:31:03;3.60;99.90
11489;DHT22;5801;50.804;12.638;2024-03-25T03:41:01;3.40;99.90
11489;DHT22;5801;50.804;12.638;2024-03-25T03:45:53;3.20;1.00
11489;DHT22;5801;50.804;12.638;2024-03-25T03:48:19;3.40;1.00
11489;DHT22;5801;50.804;12.638;2024-03-25T03:53:11;3.50;1.00
11489;DHT22;5801;50.804;12.638;2024-03-25T03:58:03;3.40;99.90
11489;DHT22;5801;50.804;12.638;2024-03-25T04:00:32;3.50;77.10
11489;DHT22;5801;50.804;12.638;2024-03-25T04:05:28;3.50;59.30
11489;DHT22;5801;50.804;12.638;2024-03-25T04:15:14;3.60;1.00
11489;DHT22;5801;50.804;12.638;2024-03-25T04:20:11;3.70;1.00
11489;DHT22;5801;50.804;12.638;2024-03-25T04:30:04;3.80;99.90
11489;DHT22;5801;50.804;12.638;2024-03-25T04:34:58;3.70;99.90
11489;DHT22;5801;50.804;12.638;2024-03-25T04:39:50;3.50;99.90
11489;DHT22;5801;50.804;12.638;2024-03-25T04:44:41;3.70;1.00
11489;DHT22;5801;50.804;12.638;2024-03-25T04:59:18;3.60;1.00
11489;DHT22;5801;50.804;12.638;2024-03-25T05:11:28;3.80;1.00
11489;DHT22;5801;50.804;12.638;2024-03-25T05:13:55;3.80;1.00
11489;DHT22;5801;50.804;12.638;2024-03-25T05:18:46;3.80;1.00
11489;DHT22;5801;50.804;12.638;2024-03-25T05:21:12;3.70;1.00
11489;DHT22;5801;50.804;12.638;2024-03-25T05:23:37;3.60;1.00
11489;DHT22;5801;50.804;12.638;2024-03-25T05:26:03;3.60;1.00
11489;DHT22;5801;50.804;12.638;2024-03-25T06:00:09;4.30;1.00
11489;DHT22;5801;50.804;12.638;2024-03-25T06:05:03;3.80;1.00
11489;DHT22;5801;50.804;12.638;2024-03-25T06:07:30;4.10;1.00
11489;DHT22;5801;50.804;12.638;2024-03-25T06:14:48;3.80;1.00
11489;DHT22;5801;50.804;12.638;2024-03-25T06:19:40;4.00;1.00
11489;DHT22;5801;50.804;12.638;2024-03-25T06:24:32;3.80;1.00
11489;DHT22;5801;50.804;12.638;2024-03-25T06:34:35;4.00;1.00
11489;DHT22;5801;50.804;12.638;2024-03-25T06:37:01;3.80;1.00
11489;DHT22;5801;50.804;12.638;2024-03-25T06:46:44;4.00;1.00
11489;DHT22;5801;50.804;12.638;2024-03-25T06:54:02;4.30;1.00
11489;DHT22;5801;50.804;12.638;2024-03-25T06:56:28;3.90;1.00
11489;DHT22;5801;50.804;12.638;2024-03-25T07:06:13;4.30;1.00
11489;DHT22;5801;50.804;12.638;2024-03-25T07:11:04;4.30;1.00
11489;DHT22;5801;50.804;12.638;2024-03-25T07:23:14;4.50;1.00
11489;DHT22;5801;50.804;12.638;2024-03-25T07:32:59;4.50;99.90
11489;DHT22;5801;50.804;12.638;2024-03-25T07:37:51;4.50;1.00
11489;DHT22;5801;50.804;12.638;2024-03-25T07:40:21;4.60;99.90
11489;DHT22;5801;50.804;12.638;2024-03-25T07:45:16;4.70;1.00
11489;DHT22;5801;50.804;12.638;2024-03-25T07:50:08;4.40;1.00
11489;DHT22;5801;50.804;12.638;2024-03-25T07:55:06;4.60;1.00
11489;DHT22;5801;50.804;12.638;2024-03-25T08:17:01;4.50;1.00
11489;DHT22;5801;50.804;12.638;2024-03-25T08:19:28;4.50;1.00
11489;DHT22;5801;50.804;12.638;2024-03-25T08:29:12;4.80;99.90
11489;DHT22;5801;50.804;12.638;2024-03-25T08:38:56;5.00;99.90
11489;DHT22;5801;50.804;12.638;2024-03-25T08:43:48;5.80;99.90
11489;DHT22;5801;50.804;12.638;2024-03-25T08:51:05;6.60;99.90
11489;DHT22;5801;50.804;12.638;2024-03-25T08:55:58;6.90;99.90
11489;DHT22;5801;50.804;12.638;2024-03-25T09:00:50;6.70;99.90
11489;DHT22;5801;50.804;12.638;2024-03-25T09:10:37;6.50;99.90
11489;DHT22;5801;50.804;12.638;2024-03-25T09:32:52;6.20;99.90
11489;DHT22;5801;50.804;12.638;2024-03-25T09:40:10;6.60;99.90
11489;DHT22;5801;50.804;12.638;2024-03-25T09:42:46;6.90;99.90
11489;DHT22;5801;50.804;12.638;2024-03-25T09:45:16;7.00;99.90
11489;DHT22;5801;50.804;12.638;2024-03-25T09:47:46;7.20;99.90
11489;DHT22;5801;50.804;12.638;2024-03-25T09:50:13;7.20;99.90
11489;DHT22;5801;50.804;12.638;2024-03-25T10:00:05;6.70;99.90
11489;DHT22;5801;50.804;12.638;2024-03-25T10:02:33;6.50;99.90
11489;DHT22;5801;50.804;12.638;2024-03-25T10:22:08;7.00;99.90
11489;DHT22;5801;50.804;12.638;2024-03-25T10:24:42;6.90;99.90
11489;DHT22;5801;50.804;12.638;2024-03-25T10:27:23;7.20;99.90
11489;DHT22;5801;50.804;12.638;2024-03-25T10:29:53;7.30;99.90
11489;DHT22;5801;50.804;12.638;2024-03-25T10:34:54;7.30;99.90
11489;DHT22;5801;50.804;12.638;2024-03-25T10:37:21;7.50;99.90
11489;DHT22;5801;50.804;12.638;2024-03-25T10:39:50;8.00;99.90
11489;DHT22;5801;50.804;12.638;2024-03-25T10:42:20;8.70;99.90
11489;DHT22;5801;50.804;12.638;2024-03-25T10:44:47;9.20;99.90
11489;DHT22;5801;50.804;12.638;2024-03-25T10:47:25;9.30;99.90
11489;DHT22;5801;50.804;12.638;2024-03-25T10:49:56;9.40;99.90
11489;DHT22;5801;50.804;12.638;2024-03-25T10:52:24;9.10;99.90
11489;DHT22;5801;50.804;12.638;2024-03-25T10:59:46;8.30;99.90
11489;DHT22;5801;50.804;12.638;2024-03-25T11:02:13;8.10;99.90
11489;DHT22;5801;50.804;12.638;2024-03-25T11:04:39;7.80;99.90
11489;DHT22;5801;50.804;12.638;2024-03-25T11:07:09;7.50;99.90
11489;DHT22;5801;50.804;12.638;2024-03-25T11:09:36;7.30;99.90
11489;DHT22;5801;50.804;12.638;2024-03-25T11:16:55;7.20;99.90
11489;DHT22;5801;50.804;12.638;2024-03-25T11:19:25;7.40;99.90
11489;DHT22;5801;50.804;12.638;2024-03-25T11:24:28;7.50;99.90
11489;DHT22;5801;50.804;12.638;2024-03-25T11:26:54;7.60;99.90
11489;DHT22;5801;50.804;12.638;2024-03-25T11:29:20;7.70;99.90
11489;DHT22;5801;50.804;12.638;2024-03-25T11:31:49;7.80;99.90
11489;DHT22;5801;50.804;12.638;2024-03-25T11:34:15;8.00;99.90
11489;DHT22;5801;50.804;12.638;2024-03-25T11:39:07;8.80;99.90
11489;DHT22;5801;50.804;12.638;2024-03-25T11:41:40;9.00;99.90
11489;DHT22;5801;50.804;12.638;2024-03-25T11:44:08;9.30;99.90
11489;DHT22;5801;50.804;12.638;2024-03-25T11:46:36;10.00;99.90
11489;DHT22;5801;50.804;12.638;2024-03-25T11:49:07;10.90;99.90
11489;DHT22;5801;50.804;12.638;2024-03-25T11:51:38;11.50;99.90
11489;DHT22;5801;50.804;12.638;2024-03-25T11:59:02;10.40;99.90
11489;DHT22;5801;50.804;12.638;2024-03-25T12:01:33;9.80;99.90
11489;DHT22;5801;50.804;12.638;2024-03-25T12:04:15;10.20;99.90
11489;DHT22;5801;50.804;12.638;2024-03-25T12:09:08;12.20;99.90
11489;DHT22;5801;50.804;12.638;2024-03-25T12:11:52;11.70;99.90
11489;DHT22;5801;50.804;12.638;2024-03-25T12:14:18;11.20;99.90
11489;DHT22;5801;50.804;12.638;2024-03-25T12:16:44;10.70;99.90
11489;DHT22;5801;50.804;12.638;2024-03-25T12:19:10;10.60;99.90
11489;DHT22;5801;50.804;12.638;2024-03-25T12:21:37;10.50;99.90
11489;DHT22;5801;50.804;12.638;2024-03-25T12:24:03;10.30;99.90
11489;DHT22;5801;50.804;12.638;2024-03-25T12:26:30;10.10;99.90
11489;DHT22;5801;50.804;12.638;2024-03-25T12:28:57;10.00;99.90
11489;DHT22;5801;50.804;12.638;2024-03-25T12:31:23;9.90;99.90
11489;DHT22;5801;50.804;12.638;2024-03-25T12:33:50;9.80;99.90
11489;DHT22;5801;50.804;12.638;2024-03-25T12:36:15;9.60;99.90
11489;DHT22;5801;50.804;12.638;2024-03-25T12:38:41;8.90;99.90
11489;DHT22;5801;50.804;12.638;2024-03-25T12:41:09;8.80;99.90
11489;DHT22;5801;50.804;12.638;2024-03-25T12:43:42;8.80;99.90
11489;DHT22;5801;50.804;12.638;2024-03-25T12:48:36;9.10;99.90
11489;DHT22;5801;50.804;12.638;2024-03-25T12:53:29;9.30;99.90
11489;DHT22;5801;50.804;12.638;2024-03-25T12:55:54;9.40;99.90
11489;DHT22;5801;50.804;12.638;2024-03-25T13:03:12;9.20;99.90
11489;DHT22;5801;50.804;12.638;2024-03-25T13:08:05;9.30;99.90
11489;DHT22;5801;50.804;12.638;2024-03-25T13:10:31;9.60;99.90
11489;DHT22;5801;50.804;12.638;2024-03-25T13:20:17;9.30;99.90
11489;DHT22;5801;50.804;12.638;2024-03-25T13:22:44;9.30;99.90
11489;DHT22;5801;50.804;12.638;2024-03-25T13:27:37;9.30;99.90
11489;DHT22;5801;50.804;12.638;2024-03-25T13:30:03;9.50;99.90
11489;DHT22;5801;50.804;12.638;2024-03-25T13:32:30;9.80;99.90
11489;DHT22;5801;50.804;12.638;2024-03-25T13:37:22;9.80;99.90
11489;DHT22;5801;50.804;12.638;2024-03-25T13:47:08;9.80;99.90
11489;DHT22;5801;50.804;12.638;2024-03-25T13:49:34;10.00;99.90
11489;DHT22;5801;50.804;12.638;2024-03-25T13:54:29;9.70;99.90
11489;DHT22;5801;50.804;12.638;2024-03-25T13:56:56;9.60;99.90
11489;DHT22;5801;50.804;12.638;2024-03-25T14:09:27;9.40;99.90
11489;DHT22;5801;50.804;12.638;2024-03-25T14:24:07;9.60;99.90
11489;DHT22;5801;50.804;12.638;2024-03-25T14:31:28;9.90;99.90
11489;DHT22;5801;50.804;12.638;2024-03-25T14:33:54;10.00;99.90
11489;DHT22;5801;50.804;12.638;2024-03-25T14:41:17;9.80;99.90
11489;DHT22;5801;50.804;12.638;2024-03-25T14:43:44;9.70;99.90
11489;DHT22;5801;50.804;12.638;2024-03-25T14:46:09;9.70;99.90
11489;DHT22;5801;50.804;12.638;2024-03-25T14:48:35;9.40;99.90
11489;DHT22;5801;50.804;12.638;2024-03-25T15:10:33;9.10;99.90
11489;DHT22;5801;50.804;12.638;2024-03-25T15:12:59;8.80;99.90
11489;DHT22;5801;50.804;12.638;2024-03-25T15:17:51;8.70;99.90
11489;DHT22;5801;50.804;12.638;2024-03-25T15:20:17;8.60;99.90
11489;DHT22;5801;50.804;12.638;2024-03-25T15:22:43;8.60;99.90
11489;DHT22;5801;50.804;12.638;2024-03-25T15:25:10;8.40;99.90
11489;DHT22;5801;50.804;12.638;2024-03-25T15:30:04;8.50;99.90
11489;DHT22;5801;50.804;12.638;2024-03-25T15:34:57;8.60;99.90
11489;DHT22;5801;50.804;12.638;2024-03-25T15:39:49;8.50;99.90
11489;DHT22;5801;50.804;12.638;2024-03-25T15:47:08;8.50;99.90
11489;DHT22;5801;50.804;12.638;2024-03-25T15:54:26;8.10;99.90
11489;DHT22;5801;50.804;12.638;2024-03-25T16:01:43;7.80;99.90
11489;DHT22;5801;50.804;12.638;2024-03-25T16:04:09;7.80;99.90
11489;DHT22;5801;50.804;12.638;2024-03-25T16:16:20;7.40;99.90
11489;DHT22;5801;50.804;12.638;2024-03-25T16:21:17;7.30;99.90
11489;DHT22;5801;50.804;12.638;2024-03-25T16:26:12;7.50;99.90
11489;DHT22;5801;50.804;12.638;2024-03-25T16:31:05;7.10;99.90
11489;DHT22;5801;50.804;12.638;2024-03-25T16:33:31;7.40;99.90
11489;DHT22;5801;50.804;12.638;2024-03-25T16:40:49;7.20;99.90
11489;DHT22;5801;50.804;12.638;2024-03-25T16:43:16;7.30;99.90
11489;DHT22;5801;50.804;12.638;2024-03-25T16:48:08;7.10;99.90
11489;DHT22;5801;50.804;12.638;2024-03-25T16:50:36;6.90;99.90
11489;DHT22;5801;50.804;12.638;2024-03-25T17:05:14;6.90;99.90
11489;DHT22;5801;50.804;12.638;2024-03-25T17:07:40;7.00;99.90
11489;DHT22;5801;50.804;12.638;2024-03-25T17:10:06;6.80;99.90
11489;DHT22;5801;50.804;12.638;2024-03-25T17:15:03;6.70;99.90
11489;DHT22;5801;50.804;12.638;2024-03-25T17:27:18;5.70;99.90
11489;DHT22;5801;50.804;12.638;2024-03-25T17:29:48;5.80;99.90
11489;DHT22;5801;50.804;12.638;2024-03-25T17:32:13;5.80;99.90
11489;DHT22;5801;50.804;12.638;2024-03-25T17:54:09;5.20;99.90
11489;DHT22;5801;50.804;12.638;2024-03-25T17:56:35;4.90;99.90
11489;DHT22;5801;50.804;12.638;2024-03-25T18:03:54;4.80;99.90
11489;DHT22;5801;50.804;12.638;2024-03-25T18:08:45;4.90;99.90
11489;DHT22;5801;50.804;12.638;2024-03-25T18:13:37;4.40;99.90
11489;DHT22;5801;50.804;12.638;2024-03-25T18:16:03;4.50;99.90
11489;DHT22;5801;50.804;12.638;2024-03-25T18:30:40;4.10;99.90
11489;DHT22;5801;50.804;12.638;2024-03-25T18:33:06;4.10;99.90
11489;DHT22;5801;50.804;12.638;2024-03-25T18:35:38;4.00;99.90
11489;DHT22;5801;50.804;12.638;2024-03-25T18:38:05;3.40;99.90
11489;DHT22;5801;50.804;12.638;2024-03-25T18:40:32;3.80;99.90
11489;DHT22;5801;50.804;12.638;2024-03-25T18:45:24;3.60;99.90
11489;DHT22;5801;50.804;12.638;2024-03-25T19:04:57;3.60;99.90
11489;DHT22;5801;50.804;12.638;2024-03-25T19:12:15;3.30;99.90
11489;DHT22;5801;50.804;12.638;2024-03-25T19:26:53;3.30;99.90
11489;DHT22;5801;50.804;12.638;2024-03-25T19:36:37;3.90;99.90
11489;DHT22;5801;50.804;12.638;2024-03-25T19:43:57;3.60;99.90
11489;DHT22;5801;50.804;12.638;2024-03-25T19:48:51;3.40;99.90
11489;DHT22;5801;50.804;12.638;2024-03-25T19:51:16;3.80;99.90
11489;DHT22;5801;50.804;12.638;2024-03-25T19:53:42;3.50;99.90
11489;DHT22;5801;50.804;12.638;2024-03-25T19:56:08;3.60;99.90
11489;DHT22;5801;50.804;12.638;2024-03-25T20:01:10;3.60;99.90
11489;DHT22;5801;50.804;12.638;2024-03-25T20:03:36;3.70;99.90
11489;DHT22;5801;50.804;12.638;2024-03-25T20:06:05;3.70;99.90
11489;DHT22;5801;50.804;12.638;2024-03-25T20:08:32;3.80;99.90
11489;DHT22;5801;50.804;12.638;2024-03-25T20:10:57;3.40;99.90
11489;DHT22;5801;50.804;12.638;2024-03-25T20:13:23;3.60;99.90
11489;DHT22;5801;50.804;12.638;2024-03-25T20:18:15;3.60;99.90
11489;DHT22;5801;50.804;12.638;2024-03-25T20:23:07;3.40;99.90
11489;DHT22;5801;50.804;12.638;2024-03-25T20:30:26;3.20;99.90
11489;DHT22;5801;50.804;12.638;2024-03-25T20:40:11;2.40;99.90
11489;DHT22;5801;50.804;12.638;2024-03-25T20:45:03;2.00;99.90
11489;DHT22;5801;50.804;12.638;2024-03-25T20:49:56;2.30;99.90
11489;DHT22;5801;50.804;12.638;2024-03-25T20:52:21;2.40;99.90
11489;DHT22;5801;50.804;12.638;2024-03-25T20:57:13;2.20;99.90
11489;DHT22;5801;50.804;12.638;2024-03-25T21:04:31;1.90;99.90
11489;DHT22;5801;50.804;12.638;2024-03-25T21:06:58;2.60;99.90
11489;DHT22;5801;50.804;12.638;2024-03-25T21:14:16;2.70;99.90
11489;DHT22;5801;50.804;12.638;2024-03-25T21:26:27;3.10;99.90
11489;DHT22;5801;50.804;12.638;2024-03-25T21:31:19;3.40;99.90
11489;DHT22;5801;50.804;12.638;2024-03-25T21:33:44;3.70;99.90
11489;DHT22;5801;50.804;12.638;2024-03-25T21:36:11;3.10;99.90
11489;DHT22;5801;50.804;12.638;2024-03-25T21:38:37;2.90;99.90
11489;DHT22;5801;50.804;12.638;2024-03-25T21:50:58;2.90;99.90
11489;DHT22;5801;50.804;12.638;2024-03-25T21:53:24;2.50;99.90
11489;DHT22;5801;50.804;12.638;2024-03-25T22:03:09;2.60;99.90
11489;DHT22;5801;50.804;12.638;2024-03-25T22:05:34;2.40;99.90
11489;DHT22;5801;50.804;12.638;2024-03-25T22:08:00;2.50;99.90
11489;DHT22;5801;50.804;12.638;2024-03-25T22:10:27;2.80;99.90
11489;DHT22;5801;50.804;12.638;2024-03-25T22:15:23;2.60;99.90
11489;DHT22;5801;50.804;12.638;2024-03-25T22:32:25;2.40;99.90
11489;DHT22;5801;50.804;12.638;2024-03-25T22:37:18;2.10;99.90
11489;DHT22;5801;50.804;12.638;2024-03-25T22:42:11;2.40;99.90
11489;DHT22;5801;50.804;12.638;2024-03-25T22:44:36;2.30;99.90
11489;DHT22;5801;50.804;12.638;2024-03-25T22:51:54;1.70;99.90
11489;DHT22;5801;50.804;12.638;2024-03-25T23:06:30;1.70;99.90
11489;DHT22;5801;50.804;12.638;2024-03-25T23:13:49;1.40;99.90
11489;DHT22;5801;50.804;12.638;2024-03-25T23:16:14;1.10;99.90
11489;DHT22;5801;50.804;12.638;2024-03-25T23:18:40;1.60;99.90
11489;DHT22;5801;50.804;12.638;2024-03-25T23:33:16;1.80;99.90
11489;DHT22;5801;50.804;12.638;2024-03-25T23:47:53;2.00;99.90
